Terminal Aerodrome Forecast
Issued by NWS

Home | Current Version | Previous Version | Graphics & Text | Print | Product List | Glossary On
Versions: 1 2 3 4 5 6 7 8 9 10 11 12 13 14 15 16 17 18 19
000
FTUS43 KABR 211139
TAFMBG
TAF
KMBG 211139Z 2112/2212 01006KT P6SM OVC080
     FM211900 07009KT P6SM OVC110
     FM220300 11013KT P6SM BKN090=

USA.gov is the U.S. government's official web portal to all federal, state and local government web resources and services.